Time;durP1;ratioP1;P1;durP2;ratioP2;P2;SDS_P1;SDS_P2;PMS_P1;PMS_P2;Temp;Humidity;BMP_temperature;BMP_pressure;BME280_temperature;BME280_humidity;BME280_pressure;Samples;Min_cycle;Max_cycle;Signal;HPM_P1;HPM_P2
2023/05/25 00:01:42;;;;;;;20.45;18.25;;;461.60;2380.80;;;;;;5040017;28;20032;-83
2023/05/25 00:04:09;;;;;;;20.38;18.25;;;461.70;2380.80;;;;;;5058246;28;20025;-82
2023/05/25 00:06:40;;;;;;;20.30;18.20;;;461.70;2380.80;;;;;;5040542;28;20114;-83
2023/05/25 00:09:06;;;;;;;19.75;17.65;;;461.70;2380.80;;;;;;5040116;28;20492;-82
2023/05/25 00:11:32;;;;;;;20.02;17.95;;;486.50;2380.80;;;;;;5039406;28;20124;-83
2023/05/25 00:13:57;;;;;;;20.85;18.70;;;461.70;2380.80;;;;;;5039769;28;20071;-83
2023/05/25 00:16:23;;;;;;;20.95;18.60;;;461.70;2380.80;;;;;;5039858;28;20467;-82
2023/05/25 00:18:49;;;;;;;20.95;18.60;;;461.70;2380.80;;;;;;5039991;28;20045;-82
2023/05/25 00:21:15;;;;;;;19.67;17.67;;;461.70;2380.80;;;;;;5057967;28;20027;-81
2023/05/25 00:23:45;;;;;;;19.83;17.83;;;461.70;2380.80;;;;;;5039808;28;20454;-82
2023/05/25 00:26:10;;;;;;;20.15;18.15;;;486.40;2380.80;;;;;;5056771;28;20032;-81
2023/05/25 00:28:36;;;;;;;21.80;19.00;;;461.60;2380.80;;;;;;5039346;28;20025;-82
2023/05/25 00:31:02;;;;;;;22.02;19.45;;;461.40;2380.80;;;;;;5039429;28;20112;-81
2023/05/25 00:33:28;;;;;;;20.83;18.65;;;461.10;2380.80;;;;;;5039057;28;20025;-82
2023/05/25 00:35:54;;;;;;;22.10;19.80;;;460.90;2380.80;;;;;;5057111;28;20071;-83
2023/05/25 00:38:19;;;;;;;21.70;19.40;;;461.00;2380.80;;;;;;5039342;28;20024;-82
2023/05/25 00:40:45;;;;;;;21.10;18.90;;;461.10;2380.80;;;;;;5057473;28;20024;-82
2023/05/25 00:43:12;;;;;;;22.88;19.58;;;461.20;2380.80;;;;;;5038476;28;20029;-82
2023/05/25 00:45:38;;;;;;;22.52;18.90;;;461.10;2380.80;;;;;;5056813;28;20029;-82
2023/05/25 00:48:05;;;;;;;21.80;19.40;;;461.00;2380.80;;;;;;5041347;28;20028;-82
2023/05/25 00:50:42;;;;;;;20.42;18.08;;;460.80;2380.80;;;;;;5039071;28;20456;-81
2023/05/25 00:53:09;;;;;;;20.52;18.42;;;460.90;2380.80;;;;;;5041210;28;20091;-81
2023/05/25 00:55:44;;;;;;;21.80;19.08;;;460.90;2380.80;;;;;;5043419;28;20117;-82
2023/05/25 00:58:12;;;;;;;23.20;20.55;;;460.90;2380.80;;;;;;5060810;28;20032;-82
2023/05/25 01:00:41;;;;;;;23.35;20.60;;;436.10;2355.20;;;;;;5043395;28;20037;-82
2023/05/25 01:03:20;;;;;;;23.52;21.13;;;435.90;2355.20;;;;;;5043083;28;20117;-82
2023/05/25 01:05:47;;;;;;;21.17;18.35;;;436.00;2355.20;;;;;;5041867;28;20400;-82
2023/05/25 01:08:16;;;;;;;20.98;18.63;;;460.80;2380.80;;;;;;5039563;28;20055;-83
2023/05/25 01:10:45;;;;;;;20.95;18.75;;;460.90;2380.80;;;;;;5056938;28;20027;-83
2023/05/25 01:13:13;;;;;;;24.00;19.58;;;460.90;2380.80;;;;;;5037849;28;20077;-83
2023/05/25 01:15:39;;;;;;;22.10;18.75;;;460.90;2380.80;;;;;;5037821;28;20024;-83
2023/05/25 01:18:05;;;;;;;21.70;19.50;;;435.60;2355.20;;;;;;5056002;28;20492;-82
2023/05/25 01:20:31;;;;;;;20.48;18.33;;;436.10;2355.20;;;;;;5037540;28;20037;-83
2023/05/25 01:23:11;;;;;;;24.42;21.10;;;436.10;2355.20;;;;;;5037665;28;20032;-82
2023/05/25 01:25:50;;;;;;;23.85;19.27;;;436.00;2355.20;;;;;;5037477;28;20068;-83
2023/05/25 01:28:34;;;;;;;20.52;18.48;;;436.00;2355.20;;;;;;5037677;28;20025;-83
2023/05/25 01:31:01;;;;;;;24.20;19.20;;;436.10;2355.20;;;;;;5037691;28;20094;-83
2023/05/25 01:33:29;;;;;;;21.15;19.05;;;436.00;2355.20;;;;;;5037263;28;20035;-82
2023/05/25 01:35:55;;;;;;;22.30;20.00;;;436.10;2355.20;;;;;;5055117;28;20021;-82
2023/05/25 01:38:21;;;;;;;21.63;19.52;;;436.00;2355.20;;;;;;5036337;28;20131;-83
2023/05/25 01:40:47;;;;;;;22.45;20.15;;;436.00;2355.20;;;;;;5037295;28;20075;-82
2023/05/25 01:43:13;;;;;;;20.90;18.85;;;436.10;2355.20;;;;;;5055058;28;20029;-82
2023/05/25 01:45:39;;;;;;;22.55;19.50;;;436.00;2355.20;;;;;;5037230;28;20064;-83
2023/05/25 01:48:20;;;;;;;20.92;18.85;;;436.10;2355.20;;;;;;5034973;28;20025;-83
2023/05/25 01:50:56;;;;;;;22.95;20.67;;;436.10;2355.20;;;;;;5019668;28;20029;-82
2023/05/25 01:53:32;;;;;;;22.42;19.17;;;436.10;2355.20;;;;;;5016986;28;20080;-83
2023/05/25 01:56:02;;;;;;;23.45;20.95;;;436.10;2355.20;;;;;;5017389;28;20052;-82
2023/05/25 01:58:35;;;;;;;23.08;20.77;;;435.60;2355.20;;;;;;5016965;28;20035;-83
2023/05/25 02:01:01;;;;;;;21.67;19.15;;;435.80;2355.20;;;;;;5016696;28;20022;-83
2023/05/25 02:03:27;;;;;;;22.60;20.20;;;435.80;2355.20;;;;;;5017188;28;20117;-83
2023/05/25 02:05:53;;;;;;;23.25;20.70;;;435.80;2355.20;;;;;;5017061;28;20076;-82
2023/05/25 02:08:20;;;;;;;23.17;19.77;;;435.60;2355.20;;;;;;5017090;28;20484;-83
2023/05/25 02:10:46;;;;;;;24.00;21.40;;;435.60;2355.20;;;;;;5017123;28;20428;-82
2023/05/25 02:13:11;;;;;;;23.33;20.92;;;435.60;2355.20;;;;;;5016892;28;20032;-83
2023/05/25 02:15:37;;;;;;;22.42;20.05;;;435.60;2355.20;;;;;;5033634;28;20492;-82
2023/05/25 02:18:04;;;;;;;26.10;21.80;;;435.60;2355.20;;;;;;5015730;28;20358;-84
2023/05/25 02:20:30;;;;;;;29.67;21.20;;;435.60;2355.20;;;;;;5016518;28;20084;-84
2023/05/25 02:22:56;;;;;;;24.75;20.70;;;435.80;2355.20;;;;;;5032530;28;20029;-83
2023/05/25 02:25:22;;;;;;;24.00;21.48;;;435.70;2355.20;;;;;;5016631;28;20086;-83
2023/05/25 02:27:49;;;;;;;23.38;20.80;;;435.60;2355.20;;;;;;5032921;28;20129;-82
2023/05/25 02:30:15;;;;;;;25.70;19.42;;;435.80;2355.20;;;;;;5016310;28;20030;-83
2023/05/25 02:32:41;;;;;;;21.33;19.23;;;435.70;2355.20;;;;;;5017132;28;20033;-84
2023/05/25 02:35:07;;;;;;;22.38;19.85;;;435.60;2355.20;;;;;;5016359;28;20078;-84
2023/05/25 02:37:33;;;;;;;21.85;19.60;;;435.60;2355.20;;;;;;5016800;28;20381;-84
2023/05/25 02:39:58;;;;;;;20.60;18.60;;;435.60;2355.20;;;;;;5049286;28;20043;-81
2023/05/25 02:42:24;;;;;;;22.52;20.35;;;435.70;2355.20;;;;;;5048666;28;20231;-78
2023/05/25 02:44:50;;;;;;;21.60;19.38;;;435.40;2355.20;;;;;;5061261;28;20025;-80
2023/05/25 02:47:17;;;;;;;23.20;20.85;;;435.50;2355.20;;;;;;5036434;28;20029;-80
2023/05/25 02:49:46;;;;;;;24.38;20.10;;;435.50;2355.20;;;;;;5034044;28;20071;-80
2023/05/25 02:52:12;;;;;;;22.13;19.98;;;435.50;2355.20;;;;;;5054292;28;20052;-81
2023/05/25 02:54:38;;;;;;;25.23;20.38;;;435.40;2355.20;;;;;;5036113;28;20056;-83
2023/05/25 02:57:04;;;;;;;22.90;20.50;;;435.40;2355.20;;;;;;5035669;28;20120;-83
2023/05/25 02:59:30;;;;;;;23.30;20.30;;;435.30;2355.20;;;;;;5035795;28;20045;-83
2023/05/25 03:01:58;;;;;;;23.02;20.70;;;435.40;2355.20;;;;;;5053489;28;20052;-82
2023/05/25 03:04:24;;;;;;;23.50;21.02;;;435.30;2355.20;;;;;;5035389;28;20393;-83
2023/05/25 03:06:50;;;;;;;24.15;21.63;;;435.20;2355.20;;;;;;5035243;28;20052;-82
2023/05/25 03:09:16;;;;;;;23.23;20.75;;;410.50;2355.20;;;;;;5035682;28;20041;-84
2023/05/25 03:11:42;;;;;;;23.13;19.35;;;410.50;2355.20;;;;;;5053354;28;20040;-82
2023/05/25 03:14:09;;;;;;;24.48;21.17;;;435.20;2355.20;;;;;;5053939;28;20021;-82
2023/05/25 03:16:37;;;;;;;22.25;19.05;;;435.20;2355.20;;;;;;5036069;28;20357;-83
2023/05/25 03:19:07;;;;;;;22.50;19.70;;;435.20;2355.20;;;;;;5035250;28;20025;-82
2023/05/25 03:21:33;;;;;;;23.38;20.88;;;435.30;2355.20;;;;;;5053339;28;20079;-83
2023/05/25 03:23:58;;;;;;;22.02;19.70;;;435.20;2355.20;;;;;;5035649;28;20025;-83
2023/05/25 03:26:24;;;;;;;21.85;19.73;;;410.50;2355.20;;;;;;5053228;28;20341;-82
2023/05/25 03:28:51;;;;;;;21.70;19.52;;;410.50;2355.20;;;;;;5035958;28;20037;-83
2023/05/25 03:31:17;;;;;;;27.20;21.75;;;410.50;2355.20;;;;;;5035319;28;20031;-82
2023/05/25 03:33:43;;;;;;;24.48;20.60;;;410.30;2355.20;;;;;;5035584;28;20029;-83
2023/05/25 03:36:11;;;;;;;23.73;20.27;;;410.30;2355.20;;;;;;5035709;28;20032;-80
2023/05/25 03:38:37;;;;;;;23.60;19.15;;;410.30;2355.20;;;;;;5053165;28;20025;-81
2023/05/25 03:41:03;;;;;;;21.65;19.48;;;410.30;2355.20;;;;;;5035467;28;20072;-80
2023/05/25 03:43:29;;;;;;;22.00;19.65;;;409.70;2355.20;;;;;;5053395;28;20456;-81
2023/05/25 03:45:55;;;;;;;22.33;20.13;;;410.30;2355.20;;;;;;5052859;28;20099;-80
2023/05/25 03:48:21;;;;;;;23.25;20.60;;;410.20;2355.20;;;;;;5035401;28;20117;-83
2023/05/25 03:50:47;;;;;;;23.33;20.17;;;410.00;2355.20;;;;;;5035506;28;20021;-83
2023/05/25 03:53:13;;;;;;;27.15;21.42;;;410.20;2355.20;;;;;;5035057;28;20032;-83
2023/05/25 03:55:38;;;;;;;21.15;18.77;;;410.30;2355.20;;;;;;5035403;28;20094;-80
2023/05/25 03:58:04;;;;;;;22.60;19.98;;;410.50;2355.20;;;;;;5051983;28;20052;-82
2023/05/25 04:00:30;;;;;;;21.73;19.63;;;410.50;2355.20;;;;;;5035045;28;20036;-81
2023/05/25 04:02:57;;;;;;;24.65;20.58;;;410.50;2355.20;;;;;;5055517;28;20029;-83
2023/05/25 04:05:23;;;;;;;22.52;19.38;;;435.30;2355.20;;;;;;5055489;28;20025;-82
2023/05/25 04:07:49;;;;;;;22.52;20.33;;;435.40;2355.20;;;;;;5038598;28;20446;-81
2023/05/25 04:10:15;;;;;;;22.02;19.88;;;435.40;2355.20;;;;;;5055581;28;20523;-82
2023/05/25 04:12:40;;;;;;;23.30;20.80;;;435.50;2355.20;;;;;;5055459;28;20112;-82
2023/05/25 04:15:08;;;;;;;22.48;20.13;;;435.50;2355.20;;;;;;5038622;28;20068;-82
2023/05/25 04:17:34;;;;;;;24.13;21.52;;;435.60;2355.20;;;;;;5036772;28;20029;-82
2023/05/25 04:20:01;;;;;;;22.45;20.23;;;435.60;2355.20;;;;;;5056582;28;20460;-82
2023/05/25 04:22:27;;;;;;;23.45;21.15;;;435.70;2355.20;;;;;;5056298;28;20376;-82
2023/05/25 04:24:53;;;;;;;23.63;21.02;;;435.60;2355.20;;;;;;5038725;28;20025;-81
2023/05/25 04:27:19;;;;;;;22.13;19.95;;;435.50;2355.20;;;;;;5038215;28;20029;-82
2023/05/25 04:29:45;;;;;;;22.73;19.65;;;435.60;2355.20;;;;;;5038428;28;20384;-82
2023/05/25 04:32:16;;;;;;;25.42;22.30;;;435.50;2355.20;;;;;;5038501;28;20029;-81
2023/05/25 04:34:43;;;;;;;26.25;21.23;;;435.50;2355.20;;;;;;5038266;28;20087;-82
2023/05/25 04:37:09;;;;;;;23.85;21.45;;;435.50;2355.20;;;;;;5038421;28;20036;-81
2023/05/25 04:39:35;;;;;;;25.02;21.15;;;435.60;2355.20;;;;;;5038191;28;20056;-81
2023/05/25 04:42:03;;;;;;;24.40;21.77;;;435.60;2355.20;;;;;;5038080;28;20076;-82
2023/05/25 04:44:29;;;;;;;23.75;21.30;;;435.70;2355.20;;;;;;5038269;28;20037;-81
2023/05/25 04:46:55;;;;;;;22.70;20.13;;;435.60;2355.20;;;;;;5038275;28;20074;-83
2023/05/25 04:49:21;;;;;;;22.33;20.27;;;435.90;2355.20;;;;;;5037896;28;20029;-82
2023/05/25 04:51:47;;;;;;;24.50;20.10;;;436.00;2355.20;;;;;;5038173;28;20029;-84
2023/05/25 04:54:13;;;;;;;22.27;20.05;;;460.80;2380.80;;;;;;5038411;28;20025;-83
2023/05/25 04:56:39;;;;;;;22.30;20.10;;;460.90;2380.80;;;;;;5055886;28;20025;-82
2023/05/25 04:59:05;;;;;;;23.00;20.42;;;460.90;2380.80;;;;;;5055926;28;20373;-81
2023/05/25 05:01:33;;;;;;;25.15;21.30;;;460.90;2380.80;;;;;;5055720;28;20036;-82
2023/05/25 05:03:58;;;;;;;22.08;19.73;;;461.00;2380.80;;;;;;5055771;28;20056;-81
2023/05/25 05:06:24;;;;;;;27.48;20.17;;;461.00;2380.80;;;;;;5034708;28;20085;-82
2023/05/25 05:08:50;;;;;;;30.50;20.98;;;461.10;2380.80;;;;;;5034693;28;20033;-82
2023/05/25 05:11:16;;;;;;;26.15;21.52;;;461.20;2380.80;;;;;;5051112;28;20034;-82
2023/05/25 05:13:42;;;;;;;23.02;20.63;;;461.20;2380.80;;;;;;5050976;28;20107;-82
2023/05/25 05:16:07;;;;;;;26.98;20.15;;;461.20;2380.80;;;;;;5044740;28;20088;-82
2023/05/25 05:18:33;;;;;;;27.80;20.08;;;461.20;2380.80;;;;;;5033186;28;20075;-82
2023/05/25 05:20:59;;;;;;;25.00;20.90;;;461.20;2380.80;;;;;;5035757;28;20037;-82
2023/05/25 05:23:25;;;;;;;22.65;20.25;;;461.20;2380.80;;;;;;5035326;28;20030;-83
2023/05/25 05:25:51;;;;;;;21.48;19.42;;;461.30;2380.80;;;;;;5034604;28;20531;-82
2023/05/25 05:28:17;;;;;;;21.80;19.55;;;461.40;2380.80;;;;;;5034427;28;20025;-82
2023/05/25 05:30:45;;;;;;;25.00;20.75;;;461.40;2380.80;;;;;;5034035;28;20074;-82
2023/05/25 05:33:11;;;;;;;26.15;20.30;;;461.40;2380.80;;;;;;5034161;28;20537;-83
2023/05/25 05:35:36;;;;;;;22.45;20.15;;;461.40;2380.80;;;;;;5034440;28;20116;-81
2023/05/25 05:38:02;;;;;;;22.02;19.48;;;461.50;2380.80;;;;;;5033970;28;20021;-82
2023/05/25 05:40:28;;;;;;;29.30;20.80;;;461.50;2380.80;;;;;;5033940;28;20026;-80
2023/05/25 05:42:54;;;;;;;21.52;19.08;;;461.50;2380.80;;;;;;5035492;28;20500;-81
2023/05/25 05:45:20;;;;;;;20.42;18.25;;;461.70;2380.80;;;;;;5035393;28;20025;-81
2023/05/25 05:47:46;;;;;;;22.88;19.30;;;486.40;2380.80;;;;;;5033559;28;20021;-81
2023/05/25 05:50:11;;;;;;;22.20;19.13;;;461.70;2380.80;;;;;;5034875;28;20033;-81
2023/05/25 05:52:37;;;;;;;22.05;17.60;;;486.50;2380.80;;;;;;5034629;28;20076;-81
2023/05/25 05:55:03;;;;;;;20.15;18.05;;;486.60;2380.80;;;;;;5034631;28;20029;-81
2023/05/25 05:57:29;;;;;;;21.75;19.52;;;486.70;2380.80;;;;;;5034624;28;20049;-82
2023/05/25 05:59:55;;;;;;;21.20;19.02;;;486.70;2380.80;;;;;;5034322;28;20072;-81
2023/05/25 06:02:21;;;;;;;22.25;19.38;;;486.80;2380.80;;;;;;5034836;28;20034;-80
2023/05/25 06:04:46;;;;;;;22.92;19.60;;;487.00;2380.80;;;;;;5035331;28;20524;-80
2023/05/25 06:07:12;;;;;;;22.20;19.65;;;487.00;2380.80;;;;;;5033005;28;20045;-80
2023/05/25 06:09:38;;;;;;;21.50;18.60;;;487.10;2380.80;;;;;;5034643;28;20155;-81
2023/05/25 06:12:05;;;;;;;21.88;19.60;;;487.20;2380.80;;;;;;5034376;28;20026;-80
2023/05/25 06:14:30;;;;;;;21.25;19.00;;;487.30;2380.80;;;;;;5034512;28;20051;-80
2023/05/25 06:16:56;;;;;;;21.10;19.00;;;512.10;2380.80;;;;;;5034629;28;20112;-81
2023/05/25 06:19:22;;;;;;;20.05;17.58;;;512.30;2380.80;;;;;;5032761;28;20080;-80
2023/05/25 06:21:48;;;;;;;19.75;17.80;;;512.30;2380.80;;;;;;5033186;28;20060;-79
2023/05/25 06:24:14;;;;;;;20.58;18.42;;;512.50;2380.80;;;;;;5033836;28;20064;-80
2023/05/25 06:26:40;;;;;;;20.17;18.13;;;512.60;2380.80;;;;;;5036272;28;20021;-81
2023/05/25 06:29:06;;;;;;;18.90;17.00;;;512.80;2380.80;;;;;;5041214;28;20033;-76
2023/05/25 06:31:32;;;;;;;18.90;16.98;;;512.90;2380.80;;;;;;5040250;28;20033;-77
2023/05/25 06:33:58;;;;;;;21.88;17.45;;;537.60;2406.40;;;;;;5039428;28;20087;-78
2023/05/25 06:36:23;;;;;;;19.70;16.85;;;537.80;2406.40;;;;;;5039987;28;20045;-77
2023/05/25 06:38:49;;;;;;;22.65;17.83;;;537.80;2406.40;;;;;;5043796;28;20032;-78
2023/05/25 06:41:15;;;;;;;18.70;16.35;;;537.90;2406.40;;;;;;5042888;28;20040;-80
2023/05/25 06:43:41;;;;;;;17.15;15.45;;;538.10;2406.40;;;;;;5034653;28;20494;-80
2023/05/25 06:46:09;;;;;;;17.67;15.82;;;538.10;2406.40;;;;;;5034170;28;20116;-80
2023/05/25 06:48:36;;;;;;;18.10;16.20;;;538.20;2406.40;;;;;;5035131;28;20021;-80
2023/05/25 06:51:02;;;;;;;20.42;16.58;;;538.20;2406.40;;;;;;5033601;28;20029;-79
2023/05/25 06:53:28;;;;;;;22.92;16.77;;;538.30;2406.40;;;;;;5034350;28;20025;-81
2023/05/25 06:55:54;;;;;;;17.92;16.08;;;538.50;2406.40;;;;;;5032855;28;20481;-81
2023/05/25 06:58:20;;;;;;;21.98;17.00;;;538.50;2406.40;;;;;;5033574;28;20096;-79
2023/05/25 07:00:45;;;;;;;17.75;15.73;;;538.50;2406.40;;;;;;5032987;28;20029;-81
2023/05/25 07:03:11;;;;;;;20.33;15.25;;;563.30;2432.00;;;;;;5032387;28;20036;-81
2023/05/25 07:05:37;;;;;;;16.55;14.88;;;538.50;2406.40;;;;;;5034191;28;20057;-81
2023/05/25 07:08:03;;;;;;;16.20;14.23;;;538.50;2406.40;;;;;;5035790;28;20021;-80
2023/05/25 07:10:28;;;;;;;15.45;13.85;;;563.20;2432.00;;;;;;5035631;28;20036;-80
2023/05/25 07:12:54;;;;;;;16.20;14.23;;;563.20;2432.00;;;;;;5035978;28;20021;-80
2023/05/25 07:15:21;;;;;;;16.70;15.00;;;563.30;2432.00;;;;;;5035421;28;20029;-80
2023/05/25 07:17:47;;;;;;;14.77;13.25;;;563.60;2432.00;;;;;;5035849;28;20409;-81
2023/05/25 07:20:13;;;;;;;15.00;13.60;;;563.60;2432.00;;;;;;5035640;28;20029;-81
2023/05/25 07:22:39;;;;;;;14.30;12.80;;;563.70;2432.00;;;;;;5035206;28;20150;-81
2023/05/25 07:25:05;;;;;;;15.40;13.93;;;563.90;2432.00;;;;;;5035639;28;20088;-81
2023/05/25 07:27:32;;;;;;;15.90;12.80;;;564.00;2432.00;;;;;;5035140;28;20036;-81
2023/05/25 07:29:58;;;;;;;15.38;13.45;;;564.10;2432.00;;;;;;5035088;28;20487;-82
2023/05/25 07:32:23;;;;;;;14.88;13.32;;;588.90;2432.00;;;;;;5035444;28;20033;-82
2023/05/25 07:34:49;;;;;;;15.07;13.48;;;588.90;2432.00;;;;;;5052985;28;20391;-82
2023/05/25 07:37:15;;;;;;;13.85;12.32;;;589.10;2432.00;;;;;;5038020;28;20032;-82
2023/05/25 07:39:41;;;;;;;14.98;13.50;;;589.30;2432.00;;;;;;5039539;28;20076;-82
2023/05/25 07:42:07;;;;;;;15.10;13.55;;;589.40;2432.00;;;;;;5039426;28;20029;-80
2023/05/25 07:44:33;;;;;;;15.70;13.55;;;589.40;2432.00;;;;;;5057223;28;20028;-82
2023/05/25 07:46:59;;;;;;;16.63;14.20;;;589.50;2432.00;;;;;;5039981;28;20021;-85
2023/05/25 07:49:25;;;;;;;15.23;13.82;;;589.40;2432.00;;;;;;5040248;28;20025;-84
2023/05/25 07:51:50;;;;;;;15.32;13.35;;;589.30;2432.00;;;;;;5039196;28;20036;-84
2023/05/25 07:54:16;;;;;;;15.07;13.35;;;589.30;2432.00;;;;;;5039723;28;20052;-85
2023/05/25 07:56:42;;;;;;;14.30;12.80;;;589.20;2432.00;;;;;;5039550;28;20025;-83
2023/05/25 07:59:08;;;;;;;15.05;13.30;;;589.20;2432.00;;;;;;5039094;28;20033;-84
2023/05/25 08:01:34;;;;;;;14.68;13.25;;;589.30;2432.00;;;;;;5040204;28;20029;-84
2023/05/25 08:04:00;;;;;;;14.48;12.98;;;589.30;2432.00;;;;;;5040037;28;20029;-84
2023/05/25 08:06:26;;;;;;;14.45;12.93;;;589.10;2432.00;;;;;;5039270;28;20049;-83
2023/05/25 08:08:52;;;;;;;16.60;13.57;;;589.10;2432.00;;;;;;5039891;28;20464;-82
2023/05/25 08:11:25;;;;;;;14.38;12.70;;;589.20;2432.00;;;;;;5040325;28;20064;-84
2023/05/25 08:13:51;;;;;;;15.00;13.15;;;589.30;2432.00;;;;;;5058443;28;20095;-84
2023/05/25 08:16:17;;;;;;;16.23;14.57;;;589.30;2432.00;;;;;;5057089;28;20419;-84
2023/05/25 08:18:45;;;;;;;14.13;12.73;;;589.30;2432.00;;;;;;5039216;28;20025;-84
2023/05/25 08:21:11;;;;;;;15.85;12.55;;;589.40;2432.00;;;;;;5040095;28;20075;-84
2023/05/25 08:23:41;;;;;;;13.98;12.48;;;589.30;2432.00;;;;;;5058512;28;20025;-84
2023/05/25 08:26:10;;;;;;;18.90;13.45;;;589.30;2432.00;;;;;;5041115;28;20358;-84
2023/05/25 08:28:36;;;;;;;16.70;13.10;;;589.30;2432.00;;;;;;5040674;28;20362;-85
2023/05/25 08:31:03;;;;;;;15.05;13.00;;;589.30;2432.00;;;;;;5040534;28;20056;-86
2023/05/25 08:33:29;;;;;;;14.07;12.25;;;589.30;2432.00;;;;;;5039627;28;20071;-84
2023/05/25 08:35:55;;;;;;;13.25;11.85;;;589.30;2432.00;;;;;;5057641;28;20449;-84
2023/05/25 08:38:24;;;;;;;15.18;12.32;;;589.30;2432.00;;;;;;5039299;28;20051;-86
2023/05/25 08:41:01;;;;;;;15.98;12.15;;;589.70;2432.00;;;;;;5039100;28;20039;-84
2023/05/25 08:43:27;;;;;;;13.57;12.18;;;614.40;2432.00;;;;;;5039049;28;20029;-85
2023/05/25 08:45:58;;;;;;;13.70;12.40;;;589.70;2432.00;;;;;;5034329;28;20113;-84
2023/05/25 08:48:29;;;;;;;13.90;12.43;;;589.70;2432.00;;;;;;5037079;28;20052;-84
2023/05/25 08:50:59;;;;;;;12.50;11.23;;;589.60;2432.00;;;;;;5039024;28;20025;-86
2023/05/25 08:53:26;;;;;;;11.68;10.63;;;589.60;2432.00;;;;;;5039726;28;20013;-84
2023/05/25 08:55:54;;;;;;;12.20;10.98;;;589.70;2432.00;;;;;;5039721;28;20021;-84
2023/05/25 08:58:28;;;;;;;10.18;9.18;;;614.70;2432.00;;;;;;5039153;28;20036;-84
2023/05/25 09:00:57;;;;;;;9.48;8.50;;;615.00;2432.00;;;;;;5042439;28;20032;-85
2023/05/25 09:03:24;;;;;;;11.90;8.52;;;640.00;2432.00;;;;;;5070784;28;20036;-86
2023/05/25 09:05:50;;;;;;;10.73;9.35;;;640.10;2432.00;;;;;;5053653;28;20048;-86
2023/05/25 09:08:16;;;;;;;10.00;8.15;;;615.20;2432.00;;;;;;5052214;28;20032;-85
2023/05/25 09:10:42;;;;;;;11.10;8.80;;;615.10;2432.00;;;;;;5047585;28;20124;-85
2023/05/25 09:13:08;;;;;;;9.90;8.90;;;614.90;2432.00;;;;;;5037567;28;20052;-85
2023/05/25 09:15:34;;;;;;;12.20;9.52;;;614.90;2432.00;;;;;;5038393;28;20016;-85
2023/05/25 09:18:00;;;;;;;9.70;8.27;;;615.20;2432.00;;;;;;5039109;28;20486;-87
2023/05/25 09:20:30;;;;;;;7.50;6.70;;;615.10;2432.00;;;;;;5039577;28;20510;-85
2023/05/25 09:22:59;;;;;;;9.30;8.02;;;640.00;2432.00;;;;;;5038623;28;20029;-85
2023/05/25 09:25:27;;;;;;;8.48;7.30;;;640.60;2380.80;;;;;;5038370;28;20029;-86
2023/05/25 09:27:55;;;;;;;11.13;7.25;;;665.60;2380.80;;;;;;5038245;28;20372;-85
2023/05/25 09:30:20;;;;;;;9.32;7.80;;;665.90;2406.40;;;;;;5041740;28;20130;-86
2023/05/25 09:32:46;;;;;;;12.90;9.85;;;665.90;2432.00;;;;;;5039382;28;20032;-83
2023/05/25 09:35:14;;;;;;;10.00;8.52;;;665.80;2432.00;;;;;;5037424;28;20086;-83
2023/05/25 09:37:43;;;;;;;13.43;12.07;;;640.90;2406.40;;;;;;5037690;28;20431;-85
2023/05/25 09:40:10;;;;;;;11.93;7.95;;;640.90;2406.40;;;;;;5039363;28;20460;-86
2023/05/25 09:42:39;;;;;;;9.90;7.22;;;640.70;2406.40;;;;;;5038195;28;20029;-86
2023/05/25 09:45:06;;;;;;;8.07;6.90;;;640.90;2304.00;;;;;;5039145;28;20464;-86
2023/05/25 09:47:35;;;;;;;9.38;6.93;;;640.90;2329.60;;;;;;5038507;28;20112;-87
2023/05/25 09:50:02;;;;;;;8.93;6.90;;;665.60;2329.60;;;;;;5040108;28;20041;-87
2023/05/25 09:52:28;;;;;;;8.80;6.70;;;640.90;2304.00;;;;;;5056200;28;20086;-86
2023/05/25 09:54:56;;;;;;;9.60;6.88;;;640.80;2304.00;;;;;;5037776;28;20115;-87
2023/05/25 09:57:22;;;;;;;9.35;6.28;;;640.80;2355.20;;;;;;5037233;28;20036;-85
2023/05/25 09:59:47;;;;;;;7.53;6.72;;;640.90;2329.60;;;;;;5036662;28;20024;-86
2023/05/25 10:02:14;;;;;;;10.55;6.25;;;665.60;2304.00;;;;;;5037454;28;20029;-86
2023/05/25 10:04:40;;;;;;;7.63;6.03;;;666.00;2329.60;;;;;;5037144;28;20031;-85
2023/05/25 10:07:07;;;;;;;12.15;6.53;;;665.90;2304.00;;;;;;5055036;28;20071;-84
2023/05/25 10:09:42;;;;;;;8.15;6.75;;;666.00;2304.00;;;;;;5055033;28;20029;-85
2023/05/25 10:12:08;;;;;;;7.95;6.00;;;666.10;2304.00;;;;;;5036790;28;20532;-86
2023/05/25 10:14:36;;;;;;;11.27;7.00;;;666.00;2304.00;;;;;;5036940;28;20123;-83
2023/05/25 10:17:05;;;;;;;13.85;11.57;;;666.40;2278.40;;;;;;5036695;28;20388;-85
2023/05/25 10:19:41;;;;;;;8.25;7.32;;;666.40;2252.80;;;;;;5054586;28;20132;-84
2023/05/25 10:22:23;;;;;;;9.40;7.88;;;666.20;2252.80;;;;;;5037496;28;20033;-85
2023/05/25 10:24:55;;;;;;;9.77;7.53;;;666.00;2278.40;;;;;;5036907;28;20431;-86
2023/05/25 10:27:22;;;;;;;;;;;665.90;2304.00;;;;;;5037821;28;20086;-83
2023/05/25 10:29:50;;;;;;;8.13;5.20;;;665.90;2278.40;;;;;;5038844;28;19950;-85
2023/05/25 10:32:17;;;;;;;7.60;5.57;;;665.70;2227.20;;;;;;5038996;28;20036;-85
2023/05/25 10:34:43;;;;;;;7.15;6.38;;;665.90;2227.20;;;;;;5055907;28;20025;-87
2023/05/25 10:37:11;;;;;;;8.80;5.50;;;665.90;2227.20;;;;;;5054952;28;20135;-85
2023/05/25 10:39:37;;;;;;;8.88;6.25;;;666.10;2227.20;;;;;;5049024;28;20017;-84
2023/05/25 10:42:04;;;;;;;8.65;6.28;;;666.20;2227.20;;;;;;5078406;28;20020;-84
2023/05/25 10:44:31;;;;;;;10.20;7.00;;;666.00;2252.80;;;;;;5050578;28;20396;-83
2023/05/25 10:46:59;;;;;;;9.80;7.38;;;665.90;2278.40;;;;;;5050513;28;20024;-84
2023/05/25 10:49:32;;;;;;;10.75;6.95;;;665.90;2278.40;;;;;;5048520;28;20029;-83
2023/05/25 10:51:59;;;;;;;10.98;7.22;;;665.60;2304.00;;;;;;5037554;28;20029;-85
2023/05/25 10:54:32;;;;;;;11.25;7.32;;;640.90;2278.40;;;;;;5036176;28;20036;-83
2023/05/25 10:57:20;;;;;;;8.15;7.35;;;640.60;2278.40;;;;;;5054358;28;20107;-82
2023/05/25 10:59:51;;;;;;;10.02;7.22;;;640.40;2304.00;;;;;;5035931;28;20036;-84
2023/05/25 11:02:22;;;;;;;17.85;9.55;;;640.30;2329.60;;;;;;5032148;28;20490;-85
2023/05/25 11:04:49;;;;;;;14.82;12.80;;;640.20;2355.20;;;;;;5014137;28;20148;-83
2023/05/25 11:07:17;;;;;;;10.60;9.25;;;640.20;2380.80;;;;;;5015787;28;20435;-84
2023/05/25 11:09:55;;;;;;;9.38;8.32;;;640.10;2380.80;;;;;;5016271;28;20021;-83
2023/05/25 11:12:21;;;;;;;10.93;9.70;;;640.10;2380.80;;;;;;5015656;28;20044;-85
2023/05/25 11:15:10;;;;;;;10.27;8.00;;;640.00;2406.40;;;;;;5014926;28;20037;-85
2023/05/25 11:17:59;;;;;;;15.98;6.57;;;615.20;2406.40;;;;;;5015281;28;20033;-84
2023/05/25 11:20:27;;;;;;;14.45;6.80;;;615.10;2432.00;;;;;;5014740;28;20057;-84
2023/05/25 11:22:55;;;;;;;11.55;6.53;;;614.80;2380.80;;;;;;5015805;28;20065;-85
2023/05/25 11:25:41;;;;;;;10.93;5.88;;;614.50;2380.80;;;;;;5015484;28;20029;-83
2023/05/25 11:28:10;;;;;;;9.55;5.15;;;589.60;2432.00;;;;;;5014712;28;20434;-82
2023/05/25 11:30:37;;;;;;;15.82;4.90;;;589.40;2432.00;;;;;;5013674;28;20033;-80
2023/05/25 11:33:03;;;;;;;21.33;5.32;;;589.10;2432.00;;;;;;5020505;28;20044;-81
2023/05/25 11:35:32;;;;;;;10.35;4.28;;;588.80;2432.00;;;;;;5032077;28;20472;-81
2023/05/25 11:37:59;;;;;;;11.18;3.80;;;564.00;2432.00;;;;;;5032763;28;20025;-81
2023/05/25 11:40:29;;;;;;;8.85;4.25;;;563.50;2432.00;;;;;;5035968;28;20431;-81
2023/05/25 11:42:59;;;;;;;8.25;4.65;;;563.30;2432.00;;;;;;5035362;28;20026;-81
2023/05/25 11:45:28;;;;;;;11.50;7.47;;;538.50;2406.40;;;;;;5035674;28;20030;-81
2023/05/25 11:47:53;;;;;;;9.55;6.95;;;538.30;2406.40;;;;;;5036297;28;20029;-80
2023/05/25 11:50:20;;;;;;;7.82;5.47;;;538.00;2406.40;;;;;;5036996;28;20033;-81
2023/05/25 11:52:46;;;;;;;9.40;5.03;;;537.90;2406.40;;;;;;5037724;28;20025;-80
2023/05/25 11:55:13;;;;;;;7.03;4.70;;;537.80;2406.40;;;;;;5037094;28;20025;-81
2023/05/25 11:57:39;;;;;;;14.35;5.70;;;537.60;2406.40;;;;;;5057763;28;20029;-78
2023/05/25 12:00:10;;;;;;;5.53;3.95;;;537.60;2406.40;;;;;;5040390;28;20079;-79
2023/05/25 12:02:44;;;;;;;6.00;3.10;;;537.60;2406.40;;;;;;5041475;28;20048;-82
2023/05/25 12:05:10;;;;;;;4.63;2.90;;;537.60;2406.40;;;;;;5042132;28;20119;-81